Time;durP1;ratioP1;P1;durP2;ratioP2;P2;SDS_P1;SDS_P2;PMS_P1;PMS_P2;Temp;Humidity;BMP_temperature;BMP_pressure;BME280_temperature;BME280_humidity;BME280_pressure;Samples;Min_cycle;Max_cycle;Signal;HPM_P1;HPM_P2
2022/08/22 00:01:59;;;;;;;5.45;3.72;;;16.60;99.90;;;;;;5052481;28;20120;-31
2022/08/22 00:04:35;;;;;;;4.20;3.50;;;16.60;99.90;;;;;;5031763;28;20041;-31
2022/08/22 00:07:09;;;;;;;5.30;3.63;;;16.60;99.90;;;;;;5047732;28;20166;-30
2022/08/22 00:09:47;;;;;;;7.00;3.70;;;16.60;99.90;;;;;;5054495;28;20418;-30
2022/08/22 00:12:53;;;;;;;7.20;4.40;;;16.50;99.90;;;;;;5064302;28;20024;-29
2022/08/22 00:15:24;;;;;;;5.50;3.50;;;16.60;99.90;;;;;;5037477;28;20526;-28
2022/08/22 00:18:31;;;;;;;8.75;4.20;;;16.60;99.90;;;;;;5044068;28;20033;-29
2022/08/22 00:21:15;;;;;;;4.93;3.97;;;16.50;99.90;;;;;;5029829;28;20044;-30
2022/08/22 00:23:51;;;;;;;;;;;16.50;99.90;;;;;;5040128;28;20558;-28
2022/08/22 00:26:52;;;;;;;5.68;3.60;;;16.50;99.90;;;;;;5069428;28;20298;-29
2022/08/22 00:29:31;;;;;;;5.85;3.35;;;16.50;99.90;;;;;;5066639;28;20094;-31
2022/08/22 00:32:10;;;;;;;6.13;3.58;;;16.50;99.90;;;;;;5070455;28;20325;-29
2022/08/22 00:34:39;;;;;;;5.00;3.90;;;16.50;99.90;;;;;;5054168;28;20630;-30
2022/08/22 00:37:30;;;;;;;6.45;3.85;;;16.50;99.90;;;;;;5052989;28;20040;-32
2022/08/22 00:40:19;;;;;;;7.28;3.90;;;16.50;99.90;;;;;;5054226;28;20524;-33
2022/08/22 00:42:53;;;;;;;5.78;3.67;;;16.40;99.90;;;;;;5051780;28;20040;-30
2022/08/22 00:45:46;;;;;;;6.07;3.60;;;16.50;99.90;;;;;;5052565;28;20044;-30
2022/08/22 00:48:20;;;;;;;6.30;3.88;;;16.40;99.90;;;;;;5050714;28;20037;-32
2022/08/22 00:51:11;;;;;;;8.25;4.00;;;16.50;99.90;;;;;;5053880;28;20395;-29
2022/08/22 00:54:15;;;;;;;8.43;4.20;;;16.40;99.90;;;;;;5051861;28;20039;-30
2022/08/22 00:56:59;;;;;;;7.53;4.05;;;16.40;99.90;;;;;;4970678;28;20467;-32
2022/08/22 00:59:52;;;;;;;8.18;3.42;;;16.50;99.90;;;;;;5058577;28;20044;-32
2022/08/22 01:02:33;;;;;;;4.65;3.95;;;16.50;99.90;;;;;;5067192;28;20397;-29
2022/08/22 01:05:14;;;;;;;7.10;3.85;;;16.40;99.90;;;;;;5051389;28;20500;-30
2022/08/22 01:07:49;;;;;;;6.55;3.97;;;16.40;99.90;;;;;;5062552;28;20037;-29
2022/08/22 01:10:43;;;;;;;9.52;3.97;;;16.40;99.90;;;;;;5045497;28;20040;-30
2022/08/22 01:13:19;;;;;;;;;;;16.40;99.90;;;;;;5068380;28;20040;-27
2022/08/22 01:15:47;;;;;;;8.80;4.00;;;16.40;99.90;;;;;;5052943;28;20007;-28
2022/08/22 01:18:37;;;;;;;6.07;3.72;;;16.40;99.90;;;;;;5058656;28;20043;-27
2022/08/22 01:21:06;;;;;;;8.10;3.88;;;16.40;99.90;;;;;;5062047;28;20490;-30
2022/08/22 01:23:55;;;;;;;9.05;4.30;;;16.40;99.90;;;;;;5047281;28;20366;-30
2022/08/22 01:26:48;;;;;;;7.95;3.28;;;16.40;99.90;;;;;;5050271;28;20512;-29
2022/08/22 01:29:51;;;;;;;9.63;4.15;;;16.40;99.90;;;;;;5051078;28;20044;-30
2022/08/22 01:32:43;;;;;;;6.75;4.03;;;16.40;99.90;;;;;;5030590;28;20126;-30
2022/08/22 01:35:18;;;;;;;8.40;4.10;;;16.30;99.90;;;;;;5049048;28;20054;-29
2022/08/22 01:38:05;;;;;;;6.47;5.13;;;16.30;99.90;;;;;;5049219;28;20070;-30
2022/08/22 01:40:55;;;;;;;7.00;4.13;;;16.30;99.90;;;;;;5049100;28;20044;-29
2022/08/22 01:43:59;;;;;;;5.75;4.57;;;16.40;99.90;;;;;;5052880;28;20036;-29
2022/08/22 01:46:25;;;;;;;9.35;4.97;;;16.40;99.90;;;;;;5066349;28;20138;-27
2022/08/22 01:49:21;;;;;;;7.75;4.72;;;16.30;99.90;;;;;;5052380;28;20497;-29
2022/08/22 01:51:55;;;;;;;9.20;5.13;;;16.30;99.90;;;;;;5051720;28;20037;-27
2022/08/22 01:54:46;;;;;;;8.23;5.05;;;16.30;99.90;;;;;;5052362;28;20040;-30
2022/08/22 01:57:13;;;;;;;8.15;4.63;;;16.30;99.90;;;;;;5034359;28;20051;-29
2022/08/22 01:59:45;;;;;;;9.05;5.38;;;16.30;99.90;;;;;;5063785;28;20094;-28
2022/08/22 02:02:22;;;;;;;7.00;5.43;;;16.30;99.90;;;;;;5068704;28;20657;-27
2022/08/22 02:05:10;;;;;;;8.55;5.35;;;16.30;99.90;;;;;;5049666;28;20056;-31
2022/08/22 02:08:01;;;;;;;6.70;4.40;;;16.30;99.90;;;;;;5031045;28;20094;-30
2022/08/22 02:11:05;;;;;;;8.68;5.13;;;16.30;99.90;;;;;;5068314;28;20036;-28
2022/08/22 02:14:07;;;;;;;7.05;5.30;;;16.30;99.90;;;;;;5051285;28;20036;-28
2022/08/22 02:17:07;;;;;;;8.43;5.28;;;16.30;99.90;;;;;;5021528;28;20037;-32
2022/08/22 02:19:43;;;;;;;7.75;4.93;;;16.30;99.90;;;;;;5051583;28;20089;-27
2022/08/22 02:22:35;;;;;;;8.55;5.13;;;16.30;99.90;;;;;;5028787;28;20104;-29
2022/08/22 02:25:09;;;;;;;8.60;5.07;;;16.30;99.90;;;;;;5042914;28;20087;-27
2022/08/22 02:27:56;;;;;;;7.63;5.30;;;16.40;99.90;;;;;;5051399;28;20044;-28
2022/08/22 02:30:41;;;;;;;9.95;5.72;;;16.40;99.90;;;;;;5047264;28;20044;-30
2022/08/22 02:33:15;;;;;;;7.63;5.35;;;16.40;99.90;;;;;;5047009;28;20036;-29
2022/08/22 02:35:53;;;;;;;7.40;5.07;;;16.40;99.90;;;;;;5046657;28;20078;-29
2022/08/22 02:38:25;;;;;;;8.25;5.65;;;16.40;99.90;;;;;;5067007;28;20398;-29
2022/08/22 02:41:13;;;;;;;7.32;4.40;;;16.40;99.90;;;;;;5051031;28;20036;-31
2022/08/22 02:43:53;;;;;;;7.30;4.68;;;16.40;99.90;;;;;;5050612;28;20048;-30
2022/08/22 02:46:53;;;;;;;6.50;5.22;;;16.40;99.90;;;;;;5046337;28;20040;-28
2022/08/22 02:49:47;;;;;;;9.90;5.25;;;16.40;99.90;;;;;;5032674;28;20498;-28
2022/08/22 02:52:24;;;;;;;7.43;5.30;;;16.40;99.90;;;;;;5059999;28;20478;-31
2022/08/22 02:55:07;;;;;;;8.60;5.00;;;16.30;99.90;;;;;;5064990;28;20171;-31
2022/08/22 02:57:51;;;;;;;8.00;5.47;;;16.30;99.90;;;;;;5049102;28;20076;-27
2022/08/22 03:00:26;;;;;;;8.43;6.10;;;16.30;99.90;;;;;;5043750;28;20049;-29
2022/08/22 03:02:51;;;;;;;9.63;5.05;;;16.30;99.90;;;;;;5060216;28;20405;-28
2022/08/22 03:05:35;;;;;;;8.45;5.03;;;16.20;99.90;;;;;;5064251;28;20033;-30
2022/08/22 03:08:13;;;;;;;6.95;5.05;;;16.20;99.90;;;;;;5061602;28;20032;-31
2022/08/22 03:10:47;;;;;;;9.95;4.95;;;16.20;99.90;;;;;;5058503;28;20048;-28
2022/08/22 03:13:25;;;;;;;6.93;4.50;;;16.20;99.90;;;;;;5058301;28;20475;-30
2022/08/22 03:15:59;;;;;;;8.20;5.00;;;16.20;99.90;;;;;;5059413;28;20079;-29
2022/08/22 03:19:14;;;;;;;8.73;4.80;;;16.20;99.90;;;;;;5061677;28;20047;-28
2022/08/22 03:21:48;;;;;;;7.85;5.10;;;16.20;99.90;;;;;;5009650;28;20589;-29
2022/08/22 03:24:17;;;;;;;6.38;4.25;;;16.20;99.90;;;;;;5057152;28;20037;-28
2022/08/22 03:26:51;;;;;;;7.10;4.60;;;16.20;99.90;;;;;;5048586;28;20049;-28
2022/08/22 03:29:25;;;;;;;7.60;5.40;;;16.20;99.90;;;;;;5063799;28;20086;-29
2022/08/22 03:32:14;;;;;;;7.13;4.90;;;16.20;99.90;;;;;;5060616;28;20105;-30
2022/08/22 03:35:08;;;;;;;9.10;5.75;;;16.20;99.90;;;;;;5046870;28;20049;-28
2022/08/22 03:37:36;;;;;;;6.82;5.43;;;16.20;99.90;;;;;;5065261;28;20037;-28
2022/08/22 03:40:22;;;;;;;9.25;5.50;;;16.20;99.90;;;;;;5067751;28;20048;-28
2022/08/22 03:43:01;;;;;;;10.38;5.75;;;16.20;99.90;;;;;;5048669;28;20389;-30
2022/08/22 03:45:47;;;;;;;7.60;5.50;;;16.20;99.90;;;;;;5058271;28;20063;-27
2022/08/22 03:48:50;;;;;;;8.52;5.55;;;16.20;99.90;;;;;;5045426;28;20040;-27
2022/08/22 03:51:27;;;;;;;12.13;5.10;;;16.10;99.90;;;;;;5049570;28;20462;-27
2022/08/22 03:54:16;;;;;;;11.38;5.60;;;16.10;99.90;;;;;;5047186;28;20127;-29
2022/08/22 03:57:00;;;;;;;9.88;5.53;;;16.10;99.90;;;;;;5052095;28;20090;-30
2022/08/22 03:59:58;;;;;;;6.40;5.43;;;16.10;99.90;;;;;;5065060;28;20460;-28
2022/08/22 04:02:27;;;;;;;9.27;5.25;;;16.10;99.90;;;;;;5072543;28;20059;-26
2022/08/22 04:05:26;;;;;;;8.95;4.97;;;16.20;99.90;;;;;;5056488;28;20080;-25
2022/08/22 04:08:00;;;;;;;7.45;5.07;;;16.20;99.90;;;;;;5056103;28;20304;-25
2022/08/22 04:11:17;;;;;;;9.07;5.20;;;16.20;99.90;;;;;;5072998;28;20136;-24
2022/08/22 04:14:23;;;;;;;9.35;5.25;;;16.20;99.90;;;;;;5056305;28;20052;-24
2022/08/22 04:17:07;;;;;;;13.20;5.95;;;16.20;99.90;;;;;;5073034;28;20413;-25
2022/08/22 04:19:48;;;;;;;11.05;6.10;;;16.20;99.90;;;;;;5055862;28;20040;-24
2022/08/22 04:22:51;;;;;;;10.15;5.72;;;16.20;99.90;;;;;;5039575;28;20044;-25
2022/08/22 04:25:37;;;;;;;10.95;6.13;;;16.20;99.90;;;;;;5072874;28;20045;-25
2022/08/22 04:28:16;;;;;;;8.40;5.70;;;16.20;99.90;;;;;;5072567;28;20111;-24
2022/08/22 04:30:41;;;;;;;10.20;6.15;;;16.20;99.90;;;;;;5072218;28;20051;-25
2022/08/22 04:33:38;;;;;;;10.80;5.90;;;16.20;99.90;;;;;;5055598;28;20036;-26
2022/08/22 04:36:27;;;;;;;11.27;6.03;;;16.20;99.90;;;;;;5055521;28;20044;-25
2022/08/22 04:39:03;;;;;;;11.57;5.95;;;16.20;99.90;;;;;;5072251;28;20064;-26
2022/08/22 04:41:37;;;;;;;8.20;5.63;;;16.20;99.90;;;;;;5071951;28;20048;-24
2022/08/22 04:44:10;;;;;;;9.77;6.03;;;16.10;99.90;;;;;;5054906;28;20076;-24
2022/08/22 04:46:57;;;;;;;14.00;6.55;;;16.20;99.90;;;;;;5072807;28;20036;-25
2022/08/22 04:49:45;;;;;;;8.88;5.60;;;16.20;99.90;;;;;;5071685;28;20401;-26
2022/08/22 04:52:26;;;;;;;9.38;5.72;;;16.20;99.90;;;;;;5072486;28;20421;-25
2022/08/22 04:55:18;;;;;;;11.40;5.82;;;16.20;99.90;;;;;;5071599;28;20090;-24
2022/08/22 04:58:09;;;;;;;8.23;5.60;;;16.20;99.90;;;;;;5072032;28;20154;-23
2022/08/22 05:00:56;;;;;;;10.68;5.57;;;16.20;99.90;;;;;;5055759;28;20513;-26
2022/08/22 05:03:25;;;;;;;10.43;5.80;;;16.30;99.90;;;;;;5072054;28;20393;-25
2022/08/22 05:05:54;;;;;;;13.70;5.82;;;16.30;99.90;;;;;;5071606;28;20040;-26
2022/08/22 05:08:26;;;;;;;8.38;5.75;;;16.30;99.90;;;;;;5071970;28;20043;-24
2022/08/22 05:10:53;;;;;;;10.95;5.78;;;16.40;99.90;;;;;;5069507;28;20028;-26
2022/08/22 05:13:31;;;;;;;9.18;5.90;;;16.40;99.90;;;;;;5070506;28;20041;-25
2022/08/22 05:16:08;;;;;;;11.30;6.28;;;16.40;99.90;;;;;;5070332;28;20037;-29
2022/08/22 05:18:48;;;;;;;9.90;5.55;;;16.50;99.90;;;;;;5070372;28;20041;-25
2022/08/22 05:21:19;;;;;;;7.75;5.22;;;16.50;99.90;;;;;;5070403;28;20048;-24
2022/08/22 05:23:59;;;;;;;10.80;5.18;;;16.50;99.90;;;;;;5053735;28;20044;-25
2022/08/22 05:26:27;;;;;;;9.52;5.60;;;16.60;99.90;;;;;;5071142;28;20044;-25
2022/08/22 05:28:59;;;;;;;12.18;5.80;;;16.60;99.90;;;;;;5071424;28;20119;-24
2022/08/22 05:31:29;;;;;;;9.82;6.13;;;16.60;99.90;;;;;;5071202;28;20067;-25
2022/08/22 05:34:28;;;;;;;10.90;5.05;;;16.70;99.90;;;;;;5071386;28;20066;-25
2022/08/22 05:37:18;;;;;;;8.63;5.53;;;16.70;99.90;;;;;;5051498;28;20048;-25
2022/08/22 05:39:47;;;;;;;9.60;5.20;;;16.80;99.90;;;;;;5071642;28;20036;-24
2022/08/22 05:42:28;;;;;;;8.55;5.18;;;16.80;99.90;;;;;;5071032;28;20044;-25
2022/08/22 05:44:54;;;;;;;10.07;5.32;;;16.80;99.90;;;;;;5071055;28;20093;-24
2022/08/22 05:47:34;;;;;;;11.57;5.70;;;16.90;99.90;;;;;;5071258;28;20119;-26
2022/08/22 05:50:09;;;;;;;8.60;5.57;;;16.90;99.90;;;;;;5054446;28;20493;-24
2022/08/22 05:52:51;;;;;;;9.50;5.45;;;16.90;99.90;;;;;;5071233;28;20422;-26
2022/08/22 05:55:49;;;;;;;13.20;4.85;;;17.00;99.90;;;;;;5053996;28;20040;-26
2022/08/22 05:58:37;;;;;;;10.35;6.13;;;17.00;99.90;;;;;;5054435;28;20128;-24
2022/08/22 06:01:34;;;;;;;11.20;5.30;;;17.00;99.90;;;;;;5054232;28;20505;-25
2022/08/22 06:04:18;;;;;;;10.85;4.82;;;17.00;99.90;;;;;;5070419;28;20044;-25
2022/08/22 06:07:11;;;;;;;11.27;5.65;;;17.10;99.90;;;;;;5037211;28;20288;-24
2022/08/22 06:09:46;;;;;;;6.43;4.82;;;17.10;99.90;;;;;;5046869;28;20044;-24
2022/08/22 06:12:28;;;;;;;12.45;4.70;;;17.20;99.90;;;;;;5054856;28;20542;-25
2022/08/22 06:15:01;;;;;;;12.00;5.07;;;17.20;99.90;;;;;;5054118;28;20047;-24
2022/08/22 06:17:34;;;;;;;9.15;5.15;;;17.30;99.90;;;;;;5053997;28;20136;-26
2022/08/22 06:20:01;;;;;;;9.00;5.60;;;17.30;99.90;;;;;;5070702;28;20043;-25
2022/08/22 06:22:33;;;;;;;7.90;5.07;;;17.30;99.90;;;;;;5053756;28;20045;-26
2022/08/22 06:25:26;;;;;;;8.23;4.65;;;17.40;99.90;;;;;;5070650;28;20047;-25
2022/08/22 06:27:54;;;;;;;8.57;4.88;;;17.50;99.90;;;;;;5070335;28;20123;-24
2022/08/22 06:30:22;;;;;;;7.43;4.88;;;17.50;99.90;;;;;;5070054;28;20048;-24
2022/08/22 06:32:53;;;;;;;8.15;4.55;;;17.60;99.90;;;;;;5070510;28;20493;-25
2022/08/22 06:35:22;;;;;;;9.38;5.50;;;17.60;99.90;;;;;;5070469;28;20486;-24
2022/08/22 06:37:50;;;;;;;10.43;5.55;;;17.70;99.90;;;;;;5053930;28;20040;-24
2022/08/22 06:40:17;;;;;;;11.63;5.97;;;17.70;99.90;;;;;;5070081;28;20044;-26
2022/08/22 06:42:47;;;;;;;12.75;5.43;;;17.80;99.90;;;;;;5070116;28;20094;-24
2022/08/22 06:45:21;;;;;;;11.60;4.57;;;17.80;99.90;;;;;;5070040;28;20044;-24
2022/08/22 06:47:53;;;;;;;7.60;5.22;;;17.90;99.90;;;;;;5070237;28;20036;-26
2022/08/22 06:50:28;;;;;;;8.68;4.95;;;17.90;99.90;;;;;;5070171;28;20080;-24
2022/08/22 06:53:00;;;;;;;11.90;5.63;;;18.00;99.90;;;;;;5070160;28;20047;-26
2022/08/22 06:55:28;;;;;;;10.18;5.53;;;18.00;99.90;;;;;;5036844;28;20041;-26
2022/08/22 06:58:23;;;;;;;7.70;4.78;;;18.10;99.90;;;;;;5070117;28;20186;-25
2022/08/22 07:00:56;;;;;;;10.38;5.07;;;18.10;99.90;;;;;;5034084;28;20138;-24
2022/08/22 07:03:35;;;;;;;11.63;5.63;;;18.10;99.90;;;;;;5070170;28;20045;-26
2022/08/22 07:06:02;;;;;;;9.23;5.30;;;18.20;99.90;;;;;;5069939;28;20044;-25
2022/08/22 07:08:34;;;;;;;11.32;5.45;;;18.10;99.90;;;;;;5070019;28;20036;-25
2022/08/22 07:11:08;;;;;;;11.63;5.28;;;18.20;99.90;;;;;;5069888;28;20040;-25
2022/08/22 07:13:37;;;;;;;8.38;4.78;;;18.20;99.90;;;;;;5053227;28;20068;-24
2022/08/22 07:16:06;;;;;;;12.82;4.97;;;18.30;99.90;;;;;;5069878;28;20040;-24
2022/08/22 07:18:32;;;;;;;10.05;5.22;;;18.30;99.90;;;;;;5069608;28;20094;-25
2022/08/22 07:21:03;;;;;;;11.52;4.85;;;18.40;99.90;;;;;;5069854;28;20041;-26
2022/08/22 07:23:50;;;;;;;12.50;4.38;;;18.40;99.90;;;;;;5053240;28;20503;-24
2022/08/22 07:26:25;;;;;;;9.93;5.00;;;18.50;99.90;;;;;;5069542;28;20076;-25
2022/08/22 07:29:12;;;;;;;11.90;4.63;;;18.60;99.90;;;;;;5053315;28;20119;-25
2022/08/22 07:31:49;;;;;;;7.97;4.25;;;18.60;99.90;;;;;;5052957;28;20036;-24
2022/08/22 07:34:52;;;;;;;9.57;5.28;;;18.70;99.90;;;;;;5072028;28;20501;-25
2022/08/22 07:37:35;;;;;;;10.77;5.35;;;18.80;99.90;;;;;;5057273;28;20037;-26
2022/08/22 07:40:08;;;;;;;14.48;4.95;;;18.80;99.90;;;;;;5073717;28;20450;-24
2022/08/22 07:42:42;;;;;;;;;;;18.90;99.90;;;;;;5057684;28;20032;-25
2022/08/22 07:45:29;;;;;;;11.15;4.97;;;19.00;99.90;;;;;;5056682;28;19920;-25
2022/08/22 07:48:35;;;;;;;11.82;5.25;;;19.10;99.90;;;;;;5073202;28;20043;-25
2022/08/22 07:51:16;;;;;;;11.60;5.07;;;19.20;99.90;;;;;;5056104;28;20093;-25
2022/08/22 07:53:55;;;;;;;9.93;4.60;;;19.30;99.90;;;;;;5073357;28;20390;-25
2022/08/22 07:56:25;;;;;;;8.13;4.65;;;19.40;99.90;;;;;;5073076;28;20043;-24
2022/08/22 07:59:13;;;;;;;10.27;4.50;;;19.50;99.90;;;;;;5072896;28;20047;-25
2022/08/22 08:01:45;;;;;;;11.57;4.90;;;19.60;99.90;;;;;;5056071;28;20044;-25
2022/08/22 08:04:17;;;;;;;8.15;4.32;;;19.60;99.90;;;;;;5056052;28;20052;-28
2022/08/22 08:06:47;;;;;;;9.23;4.32;;;19.70;99.90;;;;;;5074414;28;20043;-26
2022/08/22 08:09:14;;;;;;;10.80;4.70;;;19.70;99.90;;;;;;5056182;28;20036;-25
2022/08/22 08:11:42;;;;;;;10.68;4.75;;;19.80;99.90;;;;;;5072951;28;20421;-25
2022/08/22 08:14:11;;;;;;;8.98;4.07;;;19.70;99.90;;;;;;5072919;28;20037;-24
2022/08/22 08:16:47;;;;;;;9.57;4.60;;;19.80;99.90;;;;;;5072717;28;20033;-25
2022/08/22 08:19:16;;;;;;;10.15;4.47;;;20.00;99.90;;;;;;5072656;28;20039;-25
2022/08/22 08:21:50;;;;;;;11.30;4.40;;;20.10;99.90;;;;;;5072754;28;20037;-24
2022/08/22 08:24:21;;;;;;;7.40;4.28;;;20.20;99.90;;;;;;5072617;28;20381;-25
2022/08/22 08:30:00;;;;;;;7.60;3.75;;;20.40;99.90;;;;;;5074129;28;20392;-26
2022/08/22 08:32:31;;;;;;;10.82;3.97;;;20.40;99.90;;;;;;5072278;28;20497;-24
2022/08/22 08:34:58;;;;;;;7.35;3.67;;;20.50;99.90;;;;;;5072664;28;20040;-24
2022/08/22 08:37:33;;;;;;;7.65;3.70;;;20.60;99.90;;;;;;5072671;28;20063;-25
2022/08/22 08:40:07;;;;;;;8.82;3.72;;;20.70;99.90;;;;;;5072604;28;20044;-26
2022/08/22 08:45:56;;;;;;;8.93;3.45;;;20.80;99.90;;;;;;5072973;28;20048;-27
2022/08/22 08:48:59;;;;;;;10.40;3.50;;;20.90;99.90;;;;;;5055781;28;20493;-24
2022/08/22 08:51:43;;;;;;;8.23;3.53;;;20.90;99.90;;;;;;5055233;28;20037;-24
2022/08/22 08:54:35;;;;;;;8.05;3.90;;;21.00;99.90;;;;;;5055318;28;20044;-25
2022/08/22 08:57:17;;;;;;;13.27;4.50;;;21.20;99.90;;;;;;5055219;28;20062;-24
2022/08/22 09:00:09;;;;;;;8.05;3.28;;;21.50;99.90;;;;;;5055714;28;20537;-25
2022/08/22 09:02:51;;;;;;;9.18;3.60;;;21.70;99.90;;;;;;5055095;28;20044;-25
2022/08/22 09:05:20;;;;;;;9.13;3.40;;;21.70;99.90;;;;;;5071678;28;20517;-25
2022/08/22 09:07:59;;;;;;;8.30;3.25;;;21.70;99.90;;;;;;5054995;28;20040;-25
2022/08/22 09:10:30;;;;;;;9.50;3.83;;;21.80;99.90;;;;;;5055375;28;20090;-26
2022/08/22 09:13:02;;;;;;;7.72;3.15;;;21.70;99.90;;;;;;5055167;28;20420;-25
2022/08/22 09:15:51;;;;;;;9.68;3.90;;;21.80;99.90;;;;;;5055092;28;20485;-26
2022/08/22 09:18:46;;;;;;;8.55;3.25;;;21.80;99.90;;;;;;5016317;28;20051;-24
2022/08/22 09:21:33;;;;;;;7.53;3.35;;;21.90;99.90;;;;;;5051698;28;20090;-26
2022/08/22 09:24:24;;;;;;;8.02;3.10;;;22.20;99.90;;;;;;5071792;28;20037;-24
2022/08/22 09:27:00;;;;;;;7.90;3.15;;;22.40;99.90;;;;;;5055699;28;20048;-24
2022/08/22 09:29:45;;;;;;;11.13;3.42;;;22.70;99.90;;;;;;5072228;28;20037;-26
2022/08/22 09:32:27;;;;;;;7.50;3.35;;;22.90;99.90;;;;;;5072019;28;20041;-26
2022/08/22 09:35:06;;;;;;;4.00;2.50;;;23.20;99.90;;;;;;5071986;28;20033;-27
2022/08/22 09:37:45;;;;;;;9.02;3.22;;;23.40;99.90;;;;;;5072067;28;20040;-25
2022/08/22 09:40:32;;;;;;;8.70;3.33;;;23.90;99.90;;;;;;5055072;28;20044;-27
2022/08/22 09:43:07;;;;;;;6.65;2.30;;;24.30;99.90;;;;;;5071896;28;20048;-24
2022/08/22 09:46:17;;;;;;;5.45;2.65;;;24.50;99.90;;;;;;5071909;28;20482;-25
2022/08/22 09:49:35;;;;;;;7.53;3.40;;;24.70;99.90;;;;;;4975045;28;20107;-25
2022/08/22 09:52:21;;;;;;;8.70;2.97;;;24.70;99.90;;;;;;4928402;28;20524;-26
2022/08/22 09:55:11;;;;;;;7.97;2.63;;;24.60;99.90;;;;;;5071457;28;20055;-25
2022/08/22 09:57:48;;;;;;;6.72;2.90;;;24.50;99.90;;;;;;5070920;28;20040;-24
2022/08/22 10:00:16;;;;;;;5.72;2.65;;;24.30;99.90;;;;;;5071621;28;20045;-25
2022/08/22 10:03:07;;;;;;;6.93;3.00;;;24.20;99.90;;;;;;5054995;28;20136;-25
2022/08/22 10:06:07;;;;;;;8.18;3.38;;;24.00;99.90;;;;;;5070850;28;20393;-24
2022/08/22 10:09:19;;;;;;;6.35;3.13;;;23.90;98.20;;;;;;5060150;28;20059;-26
2022/08/22 10:12:12;;;;;;;7.53;2.85;;;23.80;99.90;;;;;;5054453;28;20391;-25
2022/08/22 10:14:47;;;;;;;5.07;2.47;;;23.80;99.90;;;;;;5035277;28;20052;-25
2022/08/22 10:17:17;;;;;;;6.05;2.30;;;23.80;99.90;;;;;;5054179;28;20067;-25
2022/08/22 10:20:01;;;;;;;6.20;2.58;;;24.00;99.90;;;;;;5054367;28;20144;-26
2022/08/22 10:23:04;;;;;;;7.93;2.88;;;24.00;99.90;;;;;;5054188;28;20102;-25
2022/08/22 10:25:52;;;;;;;7.43;3.03;;;24.20;99.90;;;;;;5054217;28;20040;-26
2022/08/22 10:28:45;;;;;;;9.52;3.00;;;24.30;99.90;;;;;;5071255;28;20052;-27
2022/08/22 10:31:18;;;;;;;7.03;2.78;;;24.50;99.90;;;;;;5052847;28;20049;-25
2022/08/22 10:34:03;;;;;;;8.75;2.50;;;24.60;99.90;;;;;;5037185;28;20051;-26
2022/08/22 10:36:38;;;;;;;7.55;2.78;;;24.70;97.50;;;;;;5054652;28;20101;-28
2022/08/22 10:39:08;;;;;;;5.57;2.53;;;24.70;99.90;;;;;;5054865;28;20123;-25
2022/08/22 10:41:56;;;;;;;6.15;2.13;;;24.90;97.70;;;;;;5054300;28;20041;-25
2022/08/22 10:44:56;;;;;;;4.80;2.15;;;24.90;94.10;;;;;;5053531;28;20506;-26
2022/08/22 10:47:36;;;;;;;6.35;2.28;;;25.30;92.90;;;;;;5048748;28;20414;-26
2022/08/22 10:50:12;;;;;;;7.25;2.67;;;25.70;94.50;;;;;;5054560;28;20048;-26
2022/08/22 10:55:49;;;;;;;6.93;2.70;;;26.70;91.80;;;;;;5072162;28;20128;-26
2022/08/22 10:58:27;;;;;;;6.13;1.98;;;26.90;82.40;;;;;;5054172;28;20459;-27
2022/08/22 11:00:58;;;;;;;5.55;2.65;;;27.20;67.30;;;;;;5053758;28;20032;-27
2022/08/22 11:03:41;;;;;;;6.55;2.58;;;27.50;82.60;;;;;;5053596;28;20425;-27
2022/08/22 11:06:17;;;;;;;6.25;2.63;;;27.80;75.30;;;;;;5071883;28;20032;-27
2022/08/22 11:08:49;;;;;;;5.93;2.65;;;28.30;70.80;;;;;;5051602;28;20037;-28
2022/08/22 11:11:28;;;;;;;5.75;2.13;;;28.90;72.40;;;;;;5055946;28;20128;-28
2022/08/22 11:14:35;;;;;;;5.40;2.22;;;29.30;64.10;;;;;;5054529;28;20251;-26
2022/08/22 11:17:07;;;;;;;7.07;2.75;;;29.50;60.80;;;;;;5071170;28;20120;-26
2022/08/22 11:19:54;;;;;;;4.13;2.28;;;29.00;58.00;;;;;;5054642;28;20047;-26
2022/08/22 11:22:57;;;;;;;7.30;2.50;;;28.30;60.00;;;;;;5054579;28;20052;-26
2022/08/22 11:25:23;;;;;;;;;;;28.00;62.30;;;;;;5054717;28;20098;-26
2022/08/22 11:28:21;;;;;;;5.38;2.38;;;27.60;62.90;;;;;;5055846;28;19925;-27
2022/08/22 11:30:50;;;;;;;5.10;2.65;;;27.50;66.10;;;;;;5023023;28;20045;-27
2022/08/22 11:33:28;;;;;;;6.32;2.60;;;27.30;66.40;;;;;;5053935;28;20065;-27
2022/08/22 11:36:37;;;;;;;6.57;2.13;;;27.20;66.40;;;;;;5070554;28;20130;-26
2022/08/22 11:39:41;;;;;;;7.32;2.80;;;27.20;65.10;;;;;;4983726;28;20049;-26
2022/08/22 11:42:34;;;;;;;6.45;2.88;;;27.30;63.70;;;;;;5070163;28;20036;-28
2022/08/22 11:45:05;;;;;;;6.72;2.97;;;27.60;65.10;;;;;;5070243;28;20071;-27
2022/08/22 11:47:54;;;;;;;7.00;2.83;;;27.70;68.90;;;;;;5070426;28;20074;-26
2022/08/22 11:50:36;;;;;;;5.80;2.45;;;28.00;61.70;;;;;;5070584;28;20033;-26
2022/08/22 11:53:17;;;;;;;6.55;2.83;;;28.10;64.30;;;;;;5070556;28;20044;-27
2022/08/22 11:56:08;;;;;;;6.40;2.80;;;28.20;65.00;;;;;;5054411;28;20040;-27
2022/08/22 11:58:58;;;;;;;4.70;2.50;;;28.10;61.10;;;;;;5054467;28;20116;-27
2022/08/22 12:01:42;;;;;;;5.90;2.78;;;28.10;60.10;;;;;;5053585;28;20045;-27
2022/08/22 12:04:11;;;;;;;7.40;2.63;;;28.30;61.10;;;;;;5073527;28;20033;-26
2022/08/22 12:06:57;;;;;;;6.40;2.50;;;28.50;60.10;;;;;;5073111;28;20036;-27
2022/08/22 12:09:26;;;;;;;6.88;2.70;;;29.10;59.10;;;;;;5056409;28;20052;-27
2022/08/22 12:12:01;;;;;;;4.88;2.58;;;29.50;58.90;;;;;;5056421;28;20116;-27
2022/08/22 12:14:50;;;;;;;5.43;2.40;;;29.80;57.00;;;;;;5056203;28;20040;-28
2022/08/22 12:17:47;;;;;;;6.13;2.90;;;29.70;56.70;;;;;;5036336;28;20043;-27
2022/08/22 12:20:49;;;;;;;6.38;3.03;;;29.50;56.40;;;;;;5035580;28;20116;-27
2022/08/22 12:23:39;;;;;;;5.78;2.58;;;29.20;56.30;;;;;;5052758;28;20568;-27
2022/08/22 12:26:08;;;;;;;4.97;3.22;;;28.90;57.80;;;;;;5036113;28;20052;-28
2022/08/22 12:29:02;;;;;;;6.38;2.80;;;28.80;57.80;;;;;;5054891;28;20095;-28
2022/08/22 12:31:31;;;;;;;8.90;3.13;;;28.80;58.00;;;;;;5036036;28;20087;-27
2022/08/22 12:34:08;;;;;;;5.55;2.85;;;28.60;57.00;;;;;;5035739;28;20526;-27
2022/08/22 12:36:36;;;;;;;5.95;2.83;;;28.40;58.80;;;;;;5041741;28;20390;-27
2022/08/22 12:39:17;;;;;;;7.05;2.63;;;28.40;59.00;;;;;;5052357;28;20044;-27
2022/08/22 12:42:01;;;;;;;6.00;3.08;;;28.40;60.30;;;;;;5052042;28;20037;-27
2022/08/22 12:44:48;;;;;;;8.07;2.70;;;28.70;60.70;;;;;;5052429;28;20041;-27
2022/08/22 12:47:49;;;;;;;6.75;2.85;;;28.80;57.00;;;;;;5052342;28;20075;-28
2022/08/22 12:50:31;;;;;;;6.22;3.05;;;29.10;58.50;;;;;;5016510;28;20075;-27
2022/08/22 12:53:18;;;;;;;5.05;2.78;;;29.20;56.90;;;;;;5052378;28;20482;-27
2022/08/22 12:56:16;;;;;;;4.95;2.78;;;29.40;57.60;;;;;;5053172;28;20037;-27
2022/08/22 12:58:56;;;;;;;6.28;3.10;;;29.40;57.90;;;;;;5052299;28;20579;-27
2022/08/22 13:01:23;;;;;;;6.03;2.90;;;29.40;55.70;;;;;;5051800;28;20056;-26
2022/08/22 13:03:55;;;;;;;7.25;3.10;;;29.30;55.90;;;;;;5052144;28;20045;-26
2022/08/22 13:06:37;;;;;;;6.47;2.85;;;29.20;56.00;;;;;;5086675;28;20032;-29
2022/08/22 13:09:27;;;;;;;7.35;2.55;;;29.40;55.90;;;;;;5055353;28;20132;-26
2022/08/22 13:11:58;;;;;;;5.75;3.03;;;29.50;57.40;;;;;;5071528;28;20123;-28
2022/08/22 13:14:26;;;;;;;6.45;3.00;;;30.00;58.50;;;;;;5068384;28;20429;-27
2022/08/22 13:17:04;;;;;;;6.22;3.25;;;30.70;54.40;;;;;;5068257;28;20112;-27
2022/08/22 13:19:43;;;;;;;6.07;2.70;;;31.70;53.90;;;;;;5071666;28;20040;-28
2022/08/22 13:22:15;;;;;;;6.13;2.95;;;32.60;52.70;;;;;;5072024;28;20451;-28
2022/08/22 13:24:50;;;;;;;8.45;2.78;;;33.10;49.20;;;;;;5055244;28;20390;-28
2022/08/22 13:27:27;;;;;;;8.38;2.70;;;33.80;49.70;;;;;;5055126;28;20048;-27
2022/08/22 13:30:04;;;;;;;7.38;2.63;;;34.10;49.40;;;;;;5055317;28;20090;-28
2022/08/22 13:32:43;;;;;;;6.63;2.80;;;34.20;47.40;;;;;;5071931;28;20136;-27
2022/08/22 13:35:17;;;;;;;5.03;2.80;;;34.10;46.40;;;;;;5054445;28;20178;-27
2022/08/22 13:37:46;;;;;;;5.55;2.67;;;33.30;46.40;;;;;;5071136;28;20048;-26
2022/08/22 13:40:21;;;;;;;8.68;2.80;;;32.40;46.80;;;;;;5071180;28;20070;-27
2022/08/22 13:42:50;;;;;;;5.15;2.40;;;31.70;47.80;;;;;;5071223;28;20055;-27
2022/08/22 13:45:22;;;;;;;4.78;3.00;;;31.00;48.90;;;;;;5072094;28;20079;-27
2022/08/22 13:48:07;;;;;;;6.10;2.50;;;30.40;49.90;;;;;;5054336;28;20040;-27
2022/08/22 13:50:38;;;;;;;7.60;3.10;;;30.10;50.30;;;;;;5054656;28;20055;-32
2022/08/22 13:53:10;;;;;;;9.45;2.83;;;29.80;50.70;;;;;;5054384;28;20520;-27
2022/08/22 13:55:50;;;;;;;5.60;2.63;;;29.40;51.70;;;;;;5070750;28;20073;-27
2022/08/22 13:58:42;;;;;;;6.03;2.70;;;29.20;52.40;;;;;;5054288;28;20040;-27
2022/08/22 14:01:42;;;;;;;6.80;3.20;;;29.00;53.80;;;;;;5054463;28;20050;-26
2022/08/22 14:04:17;;;;;;;4.13;2.97;;;28.80;54.10;;;;;;5070618;28;20040;-26
2022/08/22 14:07:09;;;;;;;8.00;2.92;;;28.80;54.30;;;;;;5054337;28;20040;-27
2022/08/22 14:09:51;;;;;;;4.72;2.38;;;28.70;53.10;;;;;;5048319;28;20394;-32